Asia, Texas
Current Conditions -  °F | °C
As of 3:53 AM on Saturday 20 Dec 2014 (Local Time) from KLFK Reporting Station
Haze Haze  
Wind Chill: 50°   Ceiling: 600
Heat Index: 50°   Visibility: 6mi
Dew Point: 46°   Wind: 6mph
Humidity: 86%   Direction: NA
Pressure: 30.16"   Gusts: NA
Location:  31.024°N, 94.7686°W
Report Text: KLFK 200953Z AUTO VRB05KT 6SM BR OVC006 10/08 A3016 RMK AO2 SLP213 T01000078
Loading
Personal Weather Stations






























Interactive Weather Map New forecast layout! Learn more

10-Day Weather Forecast

Advertisements
Track Severe Weather on mobile